Flight Track Log - Related Links

Times and Time Zones

All times are in EDT time to prevent confusion due to time zone crossing. See the SWA1718 flight status page for this flight to view local times or setup timezone preferences in your user account.

Time Position Orientation Groundspeed Altitude Reporting Facility
EDT Latitude Longitude Course Direction KTS MPH feet Rate Location/Type
Fri 06:57:05 PM 39.9333 -104.6667 47° Northeast 220 253 6,900  Level Denver TRACON
Fri 06:59:05 PM 40.0306 -104.5306 47° Northeast 292 336 10,900 1,681 Climbing Denver Center
Fri 07:00:07 PM 40.0467 -104.4006 81° East 340 391 12,000 1,809 Climbing Denver Center
Fri 07:01:21 PM 40.0247 -104.2725 103° East 358 412 15,000 2,515 Climbing Denver Center
Fri 07:02:23 PM 39.9831 -104.1108 109° East 382 440 17,700 2,468 Climbing Denver Center
Fri 07:03:25 PM 39.9453 -103.9658 109° East 393 452 20,100 1,984 Climbing Denver Center
Fri 07:04:27 PM 39.9081 -103.8247 109° East 413 475 21,800 1,742 Climbing Denver Center
Fri 07:05:29 PM 39.8897 -103.6717 99° East 415 478 23,700 1,694 Climbing Denver Center
Fri 07:06:31 PM 39.9083 -103.5192 81° East 423 487 25,300 1,548 Climbing Denver Center
Fri 07:07:33 PM 39.9264 -103.3611 81° East 436 502 26,900 1,355 Climbing Denver Center
Fri 07:08:35 PM 39.9444 -103.1992 82° East 446 513 28,100 1,210 Climbing Denver Center
Fri 07:09:37 PM 39.9628 -103.0344 82° East 456 525 29,400 1,258 Climbing Denver Center
Fri 07:10:39 PM 39.9811 -102.8650 82° East 466 536 30,700 1,355 Climbing Denver Center
Fri 07:11:41 PM 40.0011 -102.6811 82° East 467 537 32,200 1,355 Climbing Denver Center
Fri 07:12:43 PM 40.0200 -102.4950 82° East 463 533 33,500 1,065 Climbing Denver Center
Fri 07:13:45 PM 40.0372 -102.3347 82° East 466 536 34,400 726 Climbing Denver Center
Fri 07:14:47 PM 40.0531 -102.1753 83° East 466 536 35,000 290 Climbing Denver Center
Fri 07:15:49 PM 40.0725 -101.9842 82° East 477 549 35,000  Level Denver Center
Fri 07:16:51 PM 40.0894 -101.8219 82° East 472 543 35,000  Level Denver Center
Fri 07:17:53 PM 40.1069 -101.6372 83° East 462 532 35,000  Level Denver Center
Fri 07:18:55 PM 40.1228 -101.4772 83° East 465 535 35,000  Level Denver Center
Fri 07:19:57 PM 40.1397 -101.2917 83° East 461 531 35,000  Level Denver Center
Fri 07:20:59 PM 40.1553 -101.1331 83° East 463 533 35,000  Level Denver Center
Fri 07:22:01 PM 40.1719 -100.9464 83° East 465 535 35,000  Level Denver Center
Fri 07:23:03 PM 40.1867 -100.7869 83° East 463 533 35,000  Level Denver Center
Fri 07:24:05 PM 40.2044 -100.5994 83° East 466 536 35,000  Level Denver Center
Fri 07:25:07 PM 40.2178 -100.4392 84° East 466 536 35,000  Level Denver Center
Fri 07:26:09 PM 40.2342 -100.2531 83° East 465 535 35,000  Level Denver Center
Fri 07:27:11 PM 40.2475 -100.0911 84° East 470 541 35,000  Level Denver Center
Fri 07:28:13 PM 40.2628 -99.9028 84° East 468 539 35,000  Level Denver Center
Fri 07:29:15 PM 40.2775 -99.7242 84° East 467 537 35,000  Level Denver Center
Fri 07:30:17 PM 40.2917 -99.5544 84° East 470 541 35,000  Level Denver Center
Fri 07:31:19 PM 40.3047 -99.3842 84° East 471 542 35,000  Level Denver Center
Fri 07:32:21 PM 40.3178 -99.2133 84° East 472 543 35,000  Level Denver Center
Fri 07:33:23 PM 40.3306 -99.0442 84° East 469 540 35,000  Level Denver Center
Fri 07:34:25 PM 40.3436 -98.8739 84° East 471 542 35,000  Level Denver Center
Fri 07:35:27 PM 40.3572 -98.6703 85° East 469 540 35,000  Level Denver Center
Fri 07:36:29 PM 40.3700 -98.4989 84° East 472 543 35,000  Level Denver Center
Fri 07:37:35 PM 40.3819 -98.3286 85° East 472 543 35,000  Level Minneapolis Center
Fri 07:38:36 PM 40.3933 -98.1572 85° East 474 545 35,000  Level Minneapolis Center
Fri 07:39:38 PM 40.4069 -97.9483 85° East 479 551 35,000  Level Minneapolis Center
Fri 07:40:40 PM 40.4181 -97.7717 85° East 485 558 35,000  Level Minneapolis Center
Fri 07:41:42 PM 40.4294 -97.5953 85° East 485 558 35,000  Level Minneapolis Center
Fri 07:42:44 PM 40.4408 -97.4178 85° East 489 563 35,000  Level Minneapolis Center
Fri 07:43:45 PM 40.4628 -97.2500 80° East 486 559 35,000  Level Minneapolis Center
Fri 07:44:47 PM 40.4850 -97.0744 80° East 488 562 35,000  Level Minneapolis Center
Fri 07:45:49 PM 40.5111 -96.8617 81° East 491 565 35,000  Level Minneapolis Center
Fri 07:46:51 PM 40.5325 -96.6864 81° East 490 564 35,000  Level Minneapolis Center
Fri 07:47:53 PM 40.5531 -96.5114 81° East 488 562 35,000  Level Minneapolis Center
Fri 07:48:55 PM 40.5736 -96.3344 81° East 490 564 35,000  Level Minneapolis Center
Fri 07:50:08 PM 40.5939 -96.1606 81° East 487 560 35,000  Level Minneapolis Center
Fri 07:51:11 PM 40.6228 -95.9139 81° East 489 563 35,000  Level Minneapolis Center
Fri 07:52:12 PM 40.6425 -95.7378 82° East 490 564 35,000  Level Minneapolis Center
Fri 07:53:14 PM 40.6617 -95.5583 82° East 495 570 35,000  Level Minneapolis Center
Fri 07:54:16 PM 40.6822 -95.3781 81° East 499 574 35,000  Level Minneapolis Center
Fri 07:55:18 PM 40.7019 -95.1989 82° East 498 573 35,000  Level Minneapolis Center
Fri 07:56:20 PM 40.7206 -95.0178 82° East 500 575 35,000  Level Minneapolis Center
Fri 07:57:21 PM 40.7428 -94.7989 82° East 504 580 35,000  Level Minneapolis Center
Fri 07:58:23 PM 40.7622 -94.6161 82° East 504 580 35,000  Level Minneapolis Center
Fri 07:59:25 PM 40.7775 -94.4489 83° East 505 581 35,000  Level Minneapolis Center
Fri 08:00:27 PM 40.7964 -94.2661 82° East 505 581 35,000  Level Minneapolis Center
Fri 08:01:28 PM 40.8153 -94.0831 82° East 506 582 35,000  Level Minneapolis Center
Fri 08:02:30 PM 40.8331 -93.8672 84° East 502 578 35,000  Level Minneapolis Center
Fri 08:03:32 PM 40.8489 -93.6850 83° East 501 577 35,000  Level Minneapolis Center
Fri 08:04:34 PM 40.8669 -93.5025 82° East 502 578 35,000 -98 Level Minneapolis Center
Fri 08:05:35 PM 40.8844 -93.3217 83° East 501 577 34,800 -683 Descending Minneapolis Center
Fri 08:06:37 PM 40.9017 -93.1419 83° East 496 571 33,600 -871 Descending Minneapolis Center
Fri 08:07:39 PM 40.9178 -92.9594 83° East 499 574 33,000 -1,340 Descending Minneapolis Center
Fri 08:08:20 PM 40.9292 -92.8153 84° East 488 562 31,300 -1,176 Descending Chicago Center
Fri 08:09:21 PM 40.9436 -92.6378 84° East 486 559 31,000 -146 Descending Chicago Center
Fri 08:10:23 PM 40.9583 -92.4658 83° East 475 547 31,000  Level Chicago Center
Fri 08:11:25 PM 40.9728 -92.2892 84° East 481 554 31,000  Level Chicago Center
Fri 08:12:27 PM 40.9878 -92.1117 84° East 486 559 31,000  Level Chicago Center
Fri 08:13:29 PM 41.0025 -91.9322 84° East 490 564 31,000  Level Chicago Center
Fri 08:14:30 PM 41.0186 -91.7192 84° East 489 563 31,000  Level Chicago Center
Fri 08:15:32 PM 41.0319 -91.5503 84° East 487 560 31,000  Level Chicago Center
Fri 08:16:34 PM 41.0442 -91.3731 85° East 486 559 31,000  Level Chicago Center
Fri 08:17:36 PM 41.0567 -91.1964 85° East 483 556 31,000 -1,065 Level Chicago Center
Fri 08:18:38 PM 41.0703 -91.0161 84° East 490 564 28,800 -2,537 Descending Chicago Center
Fri 08:19:39 PM 41.0853 -90.8028 85° East 485 558 25,800 -2,390 Descending Chicago Center
Fri 08:20:41 PM 41.0953 -90.6397 85° East 450 518 23,900 -2,032 Descending Chicago Center
Fri 08:21:43 PM 41.1050 -90.4903 85° East 413 475 21,600 -2,177 Descending Chicago Center
Fri 08:22:45 PM 41.1156 -90.3469 84° East 399 459 19,400 -2,371 Descending Chicago Center
Fri 08:23:47 PM 41.1231 -90.2078 86° East 384 442 16,700 -2,032 Descending Chicago Center
Fri 08:24:49 PM 41.1314 -90.0692 85° East 377 434 15,200 -774 Descending Chicago Center
Fri 08:25:51 PM 41.1397 -89.9344 85° East 367 422 15,100 -49 Descending Chicago Center
Fri 08:26:52 PM 41.1475 -89.7992 86° East 366 421 15,100 -585 Level Chicago Center
Fri 08:27:54 PM 41.1575 -89.6408 85° East 354 407 13,900 -1,645 Descending Chicago Center
Fri 08:28:56 PM 41.1656 -89.5136 85° East 347 399 11,700 -1,548 Descending Chicago Center
Fri 08:29:58 PM 41.1769 -89.3881 83° East 343 395 10,700 -1,161 Descending Chicago Center
Fri 08:31:00 PM 41.2128 -89.2869 65° Northeast 305 351 9,300 -1,645 Descending Chicago Center
Fri 08:32:02 PM 41.2519 -89.1747 65° Northeast 300 345 7,300 -1,500 Descending Chicago Center
Fri 08:33:04 PM 41.2869 -89.0764 65° Northeast 297 342 6,200 -581 Descending Chicago Center
Fri 08:34:06 PM 41.3206 -88.9783 65° Northeast 294 338 6,100 -48 Descending Chicago Center
Fri 08:35:08 PM 41.3556 -88.8794 65° Northeast 296 341 6,100 -97 Level Chicago Center
Fri 08:36:10 PM 41.3889 -88.7794 66° East 296 341 5,900 -97 Descending Chicago Center
Fri 08:37:12 PM 41.4231 -88.6803 65° Northeast 296 341 5,900  Level Chicago Center
Fri 08:38:14 PM 41.4519 -88.5550 73° East 297 342 5,900  Level Chicago Center
Fri 08:39:15 PM 41.4706 -88.4486 77° East 297 342 5,900 -439 Level Chicago Center
Fri 08:40:17 PM 41.4892 -88.3431 77° East 294 338 5,000 -484 Descending Chicago Center
Fri 08:41:19 PM 41.5069 -88.2389 77° East 289 333 4,900 -48 Descending Chicago Center
Fri 08:42:21 PM 41.5261 -88.1336 76° East 290 334 4,900  Level Chicago Center
Fri 08:43:23 PM 41.5456 -88.0272 76° East 290 334 4,900  Level Chicago Center
Fri 08:44:25 PM 41.5633 -87.9217 77° East 290 334 4,900  Level Chicago Center
Fri 08:45:27 PM 41.5819 -87.8169 77° East 289 333 4,900 -435 Level Chicago Center
Fri 08:46:29 PM 41.5911 -87.7283 82° East 265 305 4,000 -774 Descending Chicago Center
Fri 08:47:31 PM 41.5822 -87.6211 96° East 250 288 3,300 -484 Descending Chicago Center
Fri 08:48:33 PM 41.6161 -87.5700 48° Northeast 215 247 3,000 -145 Descending Chicago Center
Fri 08:49:35 PM 41.6586 -87.5775 352° North 179 206 3,000  Level Chicago Center
Fri 08:50:36 PM 41.6892 -87.6161 317° Northwest 162 186 3,000 -203 Level Chicago Center
Fri 08:51:33 PM 41.7167 -87.6500 317° Northwest 123 142 2,600 -564 Descending Chicago TRACON
Fri 08:52:33 PM 41.7333 -87.6833 304° West 139 160 1,900 -737 Descending Chicago TRACON
Fri 08:53:27 PM 41.7667 -87.7167 323° Northwest 124 143 1,200 -778 Descending Chicago TRACON

Login

Don't have an account? Register now (free) for customized features, flight alerts, and more!